sensor_id;sensor_type;location;lat;lon;timestamp;pressure;altitude;pressure_sealevel;temperature
24740;BMP280;45234;48.148;17.128;2023-10-19T00:00:41;99173.66;;;10.97
24740;BMP280;45234;48.148;17.128;2023-10-19T00:03:12;99170.66;;;11.00
24740;BMP280;45234;48.148;17.128;2023-10-19T00:05:40;99160.81;;;11.02
24740;BMP280;45234;48.148;17.128;2023-10-19T00:08:12;99161.41;;;11.04
24740;BMP280;45234;48.148;17.128;2023-10-19T00:10:44;99152.03;;;11.03
24740;BMP280;45234;48.148;17.128;2023-10-19T00:13:14;99155.25;;;11.05
24740;BMP280;45234;48.148;17.128;2023-10-19T00:15:42;99152.44;;;11.06
24740;BMP280;45234;48.148;17.128;2023-10-19T00:18:19;99150.06;;;11.05
24740;BMP280;45234;48.148;17.128;2023-10-19T00:20:48;99143.84;;;11.06
24740;BMP280;45234;48.148;17.128;2023-10-19T00:23:21;99135.66;;;11.09
24740;BMP280;45234;48.148;17.128;2023-10-19T00:26:02;99133.38;;;11.12
24740;BMP280;45234;48.148;17.128;2023-10-19T00:28:53;99127.88;;;11.09
24740;BMP280;45234;48.148;17.128;2023-10-19T00:31:27;99121.78;;;11.15
24740;BMP280;45234;48.148;17.128;2023-10-19T00:33:57;99122.81;;;11.14
24740;BMP280;45234;48.148;17.128;2023-10-19T00:36:24;99123.81;;;11.13
24740;BMP280;45234;48.148;17.128;2023-10-19T00:38:53;99122.81;;;11.14
24740;BMP280;45234;48.148;17.128;2023-10-19T00:41:25;99109.25;;;11.12
24740;BMP280;45234;48.148;17.128;2023-10-19T00:43:59;99121.22;;;11.13
24740;BMP280;45234;48.148;17.128;2023-10-19T00:46:39;99114.00;;;11.15
24740;BMP280;45234;48.148;17.128;2023-10-19T00:49:12;99113.31;;;11.08
24740;BMP280;45234;48.148;17.128;2023-10-19T00:51:48;99106.56;;;11.07
24740;BMP280;45234;48.148;17.128;2023-10-19T00:56:54;99099.06;;;11.17
24740;BMP280;45234;48.148;17.128;2023-10-19T00:59:26;99098.47;;;11.15
24740;BMP280;45234;48.148;17.128;2023-10-19T01:02:05;99092.03;;;11.17
24740;BMP280;45234;48.148;17.128;2023-10-19T01:04:49;99096.00;;;11.20
24740;BMP280;45234;48.148;17.128;2023-10-19T01:07:30;99092.63;;;11.19
24740;BMP280;45234;48.148;17.128;2023-10-19T01:09:59;99090.03;;;11.19
24740;BMP280;45234;48.148;17.128;2023-10-19T01:12:28;99082.91;;;11.15
24740;BMP280;45234;48.148;17.128;2023-10-19T01:15:11;99081.75;;;11.11
24740;BMP280;45234;48.148;17.128;2023-10-19T01:17:53;99079.31;;;11.16
24740;BMP280;45234;48.148;17.128;2023-10-19T01:20:26;99063.31;;;11.19
24740;BMP280;45234;48.148;17.128;2023-10-19T01:23:09;99056.00;;;11.16
24740;BMP280;45234;48.148;17.128;2023-10-19T01:28:31;99041.75;;;11.18
24740;BMP280;45234;48.148;17.128;2023-10-19T01:31:18;99044.72;;;11.22
24740;BMP280;45234;48.148;17.128;2023-10-19T01:33:57;99044.59;;;11.17
24740;BMP280;45234;48.148;17.128;2023-10-19T01:36:25;99035.78;;;11.18
24740;BMP280;45234;48.148;17.128;2023-10-19T01:38:56;99023.38;;;11.20
24740;BMP280;45234;48.148;17.128;2023-10-19T01:41:28;99027.31;;;10.92
24740;BMP280;45234;48.148;17.128;2023-10-19T01:43:58;99026.44;;;11.17
24740;BMP280;45234;48.148;17.128;2023-10-19T01:46:31;99029.38;;;11.20
24740;BMP280;45234;48.148;17.128;2023-10-19T01:49:02;99022.94;;;11.23
24740;BMP280;45234;48.148;17.128;2023-10-19T01:51:33;99017.19;;;11.21
24740;BMP280;45234;48.148;17.128;2023-10-19T01:54:06;99002.66;;;11.20
24740;BMP280;45234;48.148;17.128;2023-10-19T01:56:34;98995.00;;;11.25
24740;BMP280;45234;48.148;17.128;2023-10-19T01:59:04;99000.53;;;11.28
24740;BMP280;45234;48.148;17.128;2023-10-19T02:01:31;98989.25;;;11.35
24740;BMP280;45234;48.148;17.128;2023-10-19T02:04:04;98988.84;;;11.38
24740;BMP280;45234;48.148;17.128;2023-10-19T02:06:34;98984.06;;;11.35
24740;BMP280;45234;48.148;17.128;2023-10-19T02:09:13;98973.09;;;11.21
24740;BMP280;45234;48.148;17.128;2023-10-19T02:11:52;98962.88;;;11.26
24740;BMP280;45234;48.148;17.128;2023-10-19T02:14:26;98964.00;;;11.30
24740;BMP280;45234;48.148;17.128;2023-10-19T02:16:57;98965.00;;;11.29
24740;BMP280;45234;48.148;17.128;2023-10-19T02:19:27;98955.75;;;11.33
24740;BMP280;45234;48.148;17.128;2023-10-19T02:21:57;98964.56;;;11.32
24740;BMP280;45234;48.148;17.128;2023-10-19T02:24:24;98959.72;;;11.36
24740;BMP280;45234;48.148;17.128;2023-10-19T02:26:55;98955.91;;;11.38
24740;BMP280;45234;48.148;17.128;2023-10-19T02:29:23;98960.31;;;11.38
24740;BMP280;45234;48.148;17.128;2023-10-19T02:31:50;98956.91;;;11.37
24740;BMP280;45234;48.148;17.128;2023-10-19T02:34:18;98958.34;;;11.33
24740;BMP280;45234;48.148;17.128;2023-10-19T02:36:45;98960.63;;;11.29
24740;BMP280;45234;48.148;17.128;2023-10-19T02:39:15;98960.94;;;11.33
24740;BMP280;45234;48.148;17.128;2023-10-19T02:41:47;98956.91;;;11.37
24740;BMP280;45234;48.148;17.128;2023-10-19T02:44:17;98952.53;;;11.38
24740;BMP280;45234;48.148;17.128;2023-10-19T02:46:53;98948.00;;;11.45
24740;BMP280;45234;48.148;17.128;2023-10-19T02:49:27;98944.63;;;11.44
24740;BMP280;45234;48.148;17.128;2023-10-19T02:51:54;98943.81;;;11.44
24740;BMP280;45234;48.148;17.128;2023-10-19T02:54:23;98932.56;;;11.38
24740;BMP280;45234;48.148;17.128;2023-10-19T02:56:56;98929.50;;;11.41
24740;BMP280;45234;48.148;17.128;2023-10-19T02:59:27;98929.97;;;11.38
24740;BMP280;45234;48.148;17.128;2023-10-19T03:02:00;98929.38;;;11.36
24740;BMP280;45234;48.148;17.128;2023-10-19T03:04:45;98930.50;;;11.40
24740;BMP280;45234;48.148;17.128;2023-10-19T03:07:13;98927.47;;;11.43
24740;BMP280;45234;48.148;17.128;2023-10-19T03:09:42;98918.44;;;11.46
24740;BMP280;45234;48.148;17.128;2023-10-19T03:12:16;98916.19;;;11.49
24740;BMP280;45234;48.148;17.128;2023-10-19T03:14:44;98917.22;;;11.48
24740;BMP280;45234;48.148;17.128;2023-10-19T03:17:14;98912.91;;;11.42
24740;BMP280;45234;48.148;17.128;2023-10-19T03:19:42;98911.81;;;11.38
24740;BMP280;45234;48.148;17.128;2023-10-19T03:22:09;98902.09;;;11.45
24740;BMP280;45234;48.148;17.128;2023-10-19T03:24:38;98894.53;;;11.44
24740;BMP280;45234;48.148;17.128;2023-10-19T03:27:13;98903.56;;;11.41
24740;BMP280;45234;48.148;17.128;2023-10-19T03:29:50;98897.34;;;11.42
24740;BMP280;45234;48.148;17.128;2023-10-19T03:32:23;98899.50;;;11.45
24740;BMP280;45234;48.148;17.128;2023-10-19T03:35:02;98897.25;;;11.49
24740;BMP280;45234;48.148;17.128;2023-10-19T03:37:32;98892.19;;;11.54
24740;BMP280;45234;48.148;17.128;2023-10-19T03:40:02;98891.41;;;11.53
24740;BMP280;45234;48.148;17.128;2023-10-19T03:42:34;98882.47;;;11.49
24740;BMP280;45234;48.148;17.128;2023-10-19T03:45:08;98884.06;;;11.50
24740;BMP280;45234;48.148;17.128;2023-10-19T03:47:40;98880.44;;;11.51
24740;BMP280;45234;48.148;17.128;2023-10-19T03:50:10;98869.50;;;11.49
24740;BMP280;45234;48.148;17.128;2023-10-19T03:52:47;98865.78;;;11.45
24740;BMP280;45234;48.148;17.128;2023-10-19T03:55:14;98860.59;;;11.45
24740;BMP280;45234;48.148;17.128;2023-10-19T03:57:50;98855.84;;;11.42
24740;BMP280;45234;48.148;17.128;2023-10-19T04:00:21;98854.84;;;11.43
24740;BMP280;45234;48.148;17.128;2023-10-19T04:02:53;98849.06;;;11.41
24740;BMP280;45234;48.148;17.128;2023-10-19T04:05:21;98846.25;;;11.43
24740;BMP280;45234;48.148;17.128;2023-10-19T04:07:50;98841.84;;;11.43
24740;BMP280;45234;48.148;17.128;2023-10-19T04:10:20;98838.81;;;11.46
24740;BMP280;45234;48.148;17.128;2023-10-19T04:12:57;98837.22;;;11.45
24740;BMP280;45234;48.148;17.128;2023-10-19T04:15:28;98841.84;;;11.43
24740;BMP280;45234;48.148;17.128;2023-10-19T04:18:03;98833.06;;;11.44
24740;BMP280;45234;48.148;17.128;2023-10-19T04:20:38;98832.72;;;11.41
24740;BMP280;45234;48.148;17.128;2023-10-19T04:23:17;98833.06;;;11.44
24740;BMP280;45234;48.148;17.128;2023-10-19T04:25:44;98821.09;;;11.43
24740;BMP280;45234;48.148;17.128;2023-10-19T04:28:16;98819.53;;;11.42
24740;BMP280;45234;48.148;17.128;2023-10-19T04:30:47;98815.91;;;11.43
24740;BMP280;45234;48.148;17.128;2023-10-19T04:33:15;98826.19;;;11.50
24740;BMP280;45234;48.148;17.128;2023-10-19T04:35:44;98820.22;;;11.49
24740;BMP280;45234;48.148;17.128;2023-10-19T04:38:12;98818.63;;;11.48
24740;BMP280;45234;48.148;17.128;2023-10-19T04:40:38;98802.16;;;11.54
24740;BMP280;45234;48.148;17.128;2023-10-19T04:43:05;98808.66;;;11.57
24740;BMP280;45234;48.148;17.128;2023-10-19T04:45:32;98803.63;;;11.50
24740;BMP280;45234;48.148;17.128;2023-10-19T04:47:59;98795.84;;;11.50
24740;BMP280;45234;48.148;17.128;2023-10-19T04:50:29;98791.22;;;11.52
24740;BMP280;45234;48.148;17.128;2023-10-19T04:52:56;98792.22;;;11.51
24740;BMP280;45234;48.148;17.128;2023-10-19T04:55:23;98789.88;;;11.50
24740;BMP280;45234;48.148;17.128;2023-10-19T04:57:50;98784.69;;;11.50
24740;BMP280;45234;48.148;17.128;2023-10-19T05:00:18;98791.78;;;11.54
24740;BMP280;45234;48.148;17.128;2023-10-19T05:02:47;98788.94;;;11.56
24740;BMP280;45234;48.148;17.128;2023-10-19T05:05:14;98793.31;;;11.55
24740;BMP280;45234;48.148;17.128;2023-10-19T05:07:44;98781.16;;;11.56
24740;BMP280;45234;48.148;17.128;2023-10-19T05:10:11;98788.94;;;11.56
24740;BMP280;45234;48.148;17.128;2023-10-19T05:12:38;98797.41;;;11.51
24740;BMP280;45234;48.148;17.128;2023-10-19T05:15:06;98801.03;;;11.50
24740;BMP280;45234;48.148;17.128;2023-10-19T05:17:33;98790.66;;;11.50
24740;BMP280;45234;48.148;17.128;2023-10-19T05:20:00;98799.00;;;11.52
24740;BMP280;45234;48.148;17.128;2023-10-19T05:22:29;98788.84;;;11.51
24740;BMP280;45234;48.148;17.128;2023-10-19T05:24:59;98782.31;;;11.48
24740;BMP280;45234;48.148;17.128;2023-10-19T05:27:30;98797.66;;;11.50
24740;BMP280;45234;48.148;17.128;2023-10-19T05:29:57;98799.00;;;11.52
24740;BMP280;45234;48.148;17.128;2023-10-19T05:32:24;98799.09;;;11.57
24740;BMP280;45234;48.148;17.128;2023-10-19T05:34:51;98780.94;;;11.57
24740;BMP280;45234;48.148;17.128;2023-10-19T05:37:18;98782.06;;;11.61
24740;BMP280;45234;48.148;17.128;2023-10-19T05:39:46;98778.44;;;11.62
24740;BMP280;45234;48.148;17.128;2023-10-19T05:42:23;98784.75;;;11.67
24740;BMP280;45234;48.148;17.128;2023-10-19T05:44:50;98779.94;;;11.70
24740;BMP280;45234;48.148;17.128;2023-10-19T05:47:18;98777.63;;;11.74
24740;BMP280;45234;48.148;17.128;2023-10-19T05:49:45;98766.69;;;11.72
24740;BMP280;45234;48.148;17.128;2023-10-19T05:52:12;98761.84;;;11.75
24740;BMP280;45234;48.148;17.128;2023-10-19T05:54:39;98761.16;;;11.80
24740;BMP280;45234;48.148;17.128;2023-10-19T05:57:06;98762.28;;;11.84
24740;BMP280;45234;48.148;17.128;2023-10-19T05:59:35;98765.53;;;11.91
24740;BMP280;45234;48.148;17.128;2023-10-19T06:02:03;98764.38;;;11.87
24740;BMP280;45234;48.148;17.128;2023-10-19T06:04:34;98765.94;;;11.88
24740;BMP280;45234;48.148;17.128;2023-10-19T06:07:01;98759.19;;;11.87
24740;BMP280;45234;48.148;17.128;2023-10-19T06:09:29;98765.03;;;11.94
24740;BMP280;45234;48.148;17.128;2023-10-19T06:11:58;98758.09;;;11.99
24740;BMP280;45234;48.148;17.128;2023-10-19T06:14:25;98760.97;;;11.98
24740;BMP280;45234;48.148;17.128;2023-10-19T06:16:52;98758.94;;;12.00
24740;BMP280;45234;48.148;17.128;2023-10-19T06:19:19;98752.03;;;12.06
24740;BMP280;45234;48.148;17.128;2023-10-19T06:21:46;98734.72;;;12.11
24740;BMP280;45234;48.148;17.128;2023-10-19T06:24:13;98728.13;;;12.20
24740;BMP280;45234;48.148;17.128;2023-10-19T06:26:42;98722.13;;;12.20
24740;BMP280;45234;48.148;17.128;2023-10-19T06:29:10;98732.84;;;12.23
24740;BMP280;45234;48.148;17.128;2023-10-19T06:31:37;98734.19;;;12.26
24740;BMP280;45234;48.148;17.128;2023-10-19T06:34:04;98744.44;;;12.32
24740;BMP280;45234;48.148;17.128;2023-10-19T06:36:31;98743.47;;;12.39
24740;BMP280;45234;48.148;17.128;2023-10-19T06:38:58;98749.78;;;12.43
24740;BMP280;45234;48.148;17.128;2023-10-19T06:41:25;98750.66;;;12.48
24740;BMP280;45234;48.148;17.128;2023-10-19T06:43:52;98755.59;;;12.50
24740;BMP280;45234;48.148;17.128;2023-10-19T06:46:19;98742.59;;;12.50
24740;BMP280;45234;48.148;17.128;2023-10-19T06:48:46;98741.81;;;12.49
24740;BMP280;45234;48.148;17.128;2023-10-19T06:51:13;98736.16;;;12.52
24740;BMP280;45234;48.148;17.128;2023-10-19T06:53:43;98738.19;;;12.50
24740;BMP280;45234;48.148;17.128;2023-10-19T06:56:10;98743.97;;;12.52
24740;BMP280;45234;48.148;17.128;2023-10-19T06:58:37;98738.56;;;12.54
24740;BMP280;45234;48.148;17.128;2023-10-19T07:01:08;98747.94;;;12.55
24740;BMP280;45234;48.148;17.128;2023-10-19T07:03:36;98736.34;;;12.62
24740;BMP280;45234;48.148;17.128;2023-10-19T07:06:04;98742.88;;;12.65
24740;BMP280;45234;48.148;17.128;2023-10-19T07:08:40;98733.25;;;12.65
24740;BMP280;45234;48.148;17.128;2023-10-19T07:11:08;98733.66;;;12.74
24740;BMP280;45234;48.148;17.128;2023-10-19T07:13:36;98722.91;;;12.71
24740;BMP280;45234;48.148;17.128;2023-10-19T07:16:03;98728.75;;;12.78
24740;BMP280;45234;48.148;17.128;2023-10-19T07:18:31;98722.56;;;12.84
24740;BMP280;45234;48.148;17.128;2023-10-19T07:20:58;98726.06;;;12.89
24740;BMP280;45234;48.148;17.128;2023-10-19T07:23:32;98733.13;;;12.94
24740;BMP280;45234;48.148;17.128;2023-10-19T07:25:59;98728.25;;;12.97
24740;BMP280;45234;48.148;17.128;2023-10-19T07:28:29;98719.19;;;13.00
24740;BMP280;45234;48.148;17.128;2023-10-19T07:30:57;98715.56;;;13.01
24740;BMP280;45234;48.148;17.128;2023-10-19T07:33:24;98710.59;;;12.99
24740;BMP280;45234;48.148;17.128;2023-10-19T07:35:51;98706.97;;;13.00
24740;BMP280;45234;48.148;17.128;2023-10-19T07:38:25;98711.16;;;13.01
24740;BMP280;45234;48.148;17.128;2023-10-19T07:40:53;98711.66;;;13.03
24740;BMP280;45234;48.148;17.128;2023-10-19T07:43:22;98710.59;;;12.99
24740;BMP280;45234;48.148;17.128;2023-10-19T07:45:50;98696.06;;;13.03
24740;BMP280;45234;48.148;17.128;2023-10-19T07:48:19;98684.75;;;13.10
24740;BMP280;45234;48.148;17.128;2023-10-19T07:50:46;98682.72;;;13.17
24740;BMP280;45234;48.148;17.128;2023-10-19T07:53:13;98683.59;;;13.22
24740;BMP280;45234;48.148;17.128;2023-10-19T07:55:41;98677.09;;;13.25
24740;BMP280;45234;48.148;17.128;2023-10-19T07:58:09;98686.13;;;13.17
24740;BMP280;45234;48.148;17.128;2023-10-19T08:00:37;98689.94;;;13.10
24740;BMP280;45234;48.148;17.128;2023-10-19T08:03:05;98682.28;;;13.03
24740;BMP280;45234;48.148;17.128;2023-10-19T08:05:32;98687.47;;;13.03
24740;BMP280;45234;48.148;17.128;2023-10-19T08:08:03;98678.19;;;13.07
24740;BMP280;45234;48.148;17.128;2023-10-19T08:10:33;98679.00;;;13.08
24740;BMP280;45234;48.148;17.128;2023-10-19T08:13:01;98670.97;;;13.14
24740;BMP280;45234;48.148;17.128;2023-10-19T08:15:28;98671.34;;;13.23
24740;BMP280;45234;48.148;17.128;2023-10-19T08:17:57;98671.63;;;13.26
24740;BMP280;45234;48.148;17.128;2023-10-19T08:20:24;98662.88;;;13.32
24740;BMP280;45234;48.148;17.128;2023-10-19T08:22:58;98655.44;;;12.97
24740;BMP280;45234;48.148;17.128;2023-10-19T08:25:27;98665.22;;;13.34
24740;BMP280;45234;48.148;17.128;2023-10-19T08:28:09;98657.19;;;13.35
24740;BMP280;45234;48.148;17.128;2023-10-19T08:30:37;98651.72;;;13.37
24740;BMP280;45234;48.148;17.128;2023-10-19T08:33:05;98657.09;;;13.52
24740;BMP280;45234;48.148;17.128;2023-10-19T08:35:35;98656.09;;;13.58
24740;BMP280;45234;48.148;17.128;2023-10-19T08:38:02;98655.19;;;13.69
24740;BMP280;45234;48.148;17.128;2023-10-19T08:40:37;98652.19;;;13.83
24740;BMP280;45234;48.148;17.128;2023-10-19T08:43:05;98654.00;;;13.82
24740;BMP280;45234;48.148;17.128;2023-10-19T08:45:34;98658.97;;;13.84
24740;BMP280;45234;48.148;17.128;2023-10-19T08:48:02;98657.50;;;13.93
24740;BMP280;45234;48.148;17.128;2023-10-19T08:50:32;98656.25;;;14.05
24740;BMP280;45234;48.148;17.128;2023-10-19T08:53:04;98660.97;;;14.08
24740;BMP280;45234;48.148;17.128;2023-10-19T08:55:32;98657.34;;;14.10
24740;BMP280;45234;48.148;17.128;2023-10-19T08:58:05;98654.19;;;14.07
24740;BMP280;45234;48.148;17.128;2023-10-19T09:00:49;98659.59;;;14.01
24740;BMP280;45234;48.148;17.128;2023-10-19T09:03:21;98667.50;;;14.11
24740;BMP280;45234;48.148;17.128;2023-10-19T09:05:49;98657.84;;;14.06
24740;BMP280;45234;48.148;17.128;2023-10-19T09:08:16;98654.72;;;14.10
24740;BMP280;45234;48.148;17.128;2023-10-19T09:10:45;98646.13;;;14.09
24740;BMP280;45234;48.148;17.128;2023-10-19T09:13:13;98646.44;;;14.13
24740;BMP280;45234;48.148;17.128;2023-10-19T09:15:45;98643.78;;;14.07
24740;BMP280;45234;48.148;17.128;2023-10-19T09:20:50;98631.50;;;14.03
24740;BMP280;45234;48.148;17.128;2023-10-19T09:23:25;98619.53;;;14.02
24740;BMP280;45234;48.148;17.128;2023-10-19T09:25:58;98622.69;;;14.09
24740;BMP280;45234;48.148;17.128;2023-10-19T09:28:29;98625.59;;;14.13
24740;BMP280;45234;48.148;17.128;2023-10-19T09:30:56;98625.16;;;14.26
24740;BMP280;45234;48.148;17.128;2023-10-19T09:33:24;98619.22;;;14.35
24740;BMP280;45234;48.148;17.128;2023-10-19T09:35:51;98622.88;;;14.39
24740;BMP280;45234;48.148;17.128;2023-10-19T09:38:20;98628.41;;;14.48
24740;BMP280;45234;48.148;17.128;2023-10-19T09:40:49;98631.75;;;14.43
24740;BMP280;45234;48.148;17.128;2023-10-19T09:43:34;98628.59;;;14.36
24740;BMP280;45234;48.148;17.128;2023-10-19T09:46:07;98617.13;;;14.37
24740;BMP280;45234;48.148;17.128;2023-10-19T09:48:46;98625.53;;;14.45
24740;BMP280;45234;48.148;17.128;2023-10-19T09:51:15;98609.44;;;14.63
24740;BMP280;45234;48.148;17.128;2023-10-19T09:53:50;98602.66;;;14.62
24740;BMP280;45234;48.148;17.128;2023-10-19T09:56:26;98594.63;;;14.84
24740;BMP280;45234;48.148;17.128;2023-10-19T09:59:05;98582.59;;;14.72
24740;BMP280;45234;48.148;17.128;2023-10-19T10:02:04;98595.94;;;14.71
24740;BMP280;45234;48.148;17.128;2023-10-19T10:04:33;98590.22;;;14.89
24740;BMP280;45234;48.148;17.128;2023-10-19T10:07:02;98593.69;;;15.00
24740;BMP280;45234;48.148;17.128;2023-10-19T10:09:36;98596.50;;;14.93
24740;BMP280;45234;48.148;17.128;2023-10-19T10:12:23;98597.59;;;15.07
24740;BMP280;45234;48.148;17.128;2023-10-19T10:17:25;98597.59;;;15.07
24740;BMP280;45234;48.148;17.128;2023-10-19T10:22:40;98583.00;;;15.11
24740;BMP280;45234;48.148;17.128;2023-10-19T10:25:24;98584.78;;;15.01
24740;BMP280;45234;48.148;17.128;2023-10-19T10:27:52;98582.47;;;15.04
24740;BMP280;45234;48.148;17.128;2023-10-19T10:30:19;98577.69;;;14.81
24740;BMP280;45234;48.148;17.128;2023-10-19T10:32:53;98567.19;;;14.61
24740;BMP280;45234;48.148;17.128;2023-10-19T10:38:11;98562.19;;;14.44
24740;BMP280;45234;48.148;17.128;2023-10-19T10:40:46;98552.97;;;14.31
24740;BMP280;45234;48.148;17.128;2023-10-19T10:43:15;98547.75;;;14.26
24740;BMP280;45234;48.148;17.128;2023-10-19T10:45:43;98545.72;;;14.33
24740;BMP280;45234;48.148;17.128;2023-10-19T10:48:17;98537.88;;;14.23
24740;BMP280;45234;48.148;17.128;2023-10-19T10:50:46;98533.16;;;14.25
24740;BMP280;45234;48.148;17.128;2023-10-19T10:53:14;98529.06;;;14.34
24740;BMP280;45234;48.148;17.128;2023-10-19T10:55:44;98522.81;;;14.40
24740;BMP280;45234;48.148;17.128;2023-10-19T10:58:20;98530.31;;;14.32
24740;BMP280;45234;48.148;17.128;2023-10-19T11:00:48;98514.44;;;14.38
24740;BMP280;45234;48.148;17.128;2023-10-19T11:03:18;98507.16;;;14.40
24740;BMP280;45234;48.148;17.128;2023-10-19T11:05:45;98512.94;;;14.53
24740;BMP280;45234;48.148;17.128;2023-10-19T11:08:14;98508.81;;;14.72
24740;BMP280;45234;48.148;17.128;2023-10-19T11:10:47;98505.94;;;14.68
24740;BMP280;45234;48.148;17.128;2023-10-19T11:13:22;98506.50;;;14.81
24740;BMP280;45234;48.148;17.128;2023-10-19T11:15:51;98501.31;;;15.01
24740;BMP280;45234;48.148;17.128;2023-10-19T11:18:32;98496.84;;;15.06
24740;BMP280;45234;48.148;17.128;2023-10-19T11:21:07;98490.59;;;15.48
24740;BMP280;45234;48.148;17.128;2023-10-19T11:23:47;98496.06;;;15.46
24740;BMP280;45234;48.148;17.128;2023-10-19T11:26:22;98497.94;;;15.51
24740;BMP280;45234;48.148;17.128;2023-10-19T11:29:01;98479.66;;;15.51
24740;BMP280;45234;48.148;17.128;2023-10-19T11:31:31;98483.81;;;15.62
24740;BMP280;45234;48.148;17.128;2023-10-19T11:34:08;98480.16;;;15.48
24740;BMP280;45234;48.148;17.128;2023-10-19T11:36:36;98488.78;;;15.43
24740;BMP280;45234;48.148;17.128;2023-10-19T11:39:03;98491.34;;;15.69
24740;BMP280;45234;48.148;17.128;2023-10-19T11:41:38;98479.84;;;15.75
24740;BMP280;45234;48.148;17.128;2023-10-19T11:44:05;98475.19;;;15.62
24740;BMP280;45234;48.148;17.128;2023-10-19T11:46:32;98469.69;;;15.58
24740;BMP280;45234;48.148;17.128;2023-10-19T11:48:59;98472.84;;;15.60
24740;BMP280;45234;48.148;17.128;2023-10-19T11:51:27;98470.25;;;15.55
24740;BMP280;45234;48.148;17.128;2023-10-19T11:53:53;98460.31;;;15.47
24740;BMP280;45234;48.148;17.128;2023-10-19T11:56:20;98456.91;;;15.57
24740;BMP280;45234;48.148;17.128;2023-10-19T11:58:48;98447.16;;;15.87
24740;BMP280;45234;48.148;17.128;2023-10-19T12:01:15;98447.13;;;15.98
24740;BMP280;45234;48.148;17.128;2023-10-19T12:03:45;98446.91;;;15.89
24740;BMP280;45234;48.148;17.128;2023-10-19T12:06:14;98464.66;;;15.92
24740;BMP280;45234;48.148;17.128;2023-10-19T12:08:51;98461.19;;;16.07
24740;BMP280;45234;48.148;17.128;2023-10-19T12:11:22;98441.19;;;15.77
24740;BMP280;45234;48.148;17.128;2023-10-19T12:13:50;98438.34;;;15.63
24740;BMP280;45234;48.148;17.128;2023-10-19T12:16:17;98428.50;;;15.45
24740;BMP280;45234;48.148;17.128;2023-10-19T12:18:46;98417.53;;;15.33
24740;BMP280;45234;48.148;17.128;2023-10-19T12:21:15;98407.09;;;15.28
24740;BMP280;45234;48.148;17.128;2023-10-19T12:23:45;98418.06;;;15.14
24740;BMP280;45234;48.148;17.128;2023-10-19T12:26:18;98424.34;;;15.13
24740;BMP280;45234;48.148;17.128;2023-10-19T12:28:46;98417.56;;;15.18
24740;BMP280;45234;48.148;17.128;2023-10-19T12:31:16;98416.00;;;15.17
24740;BMP280;45234;48.148;17.128;2023-10-19T12:33:46;98418.59;;;15.32
24740;BMP280;45234;48.148;17.128;2023-10-19T12:36:13;98412.25;;;15.58
24740;BMP280;45234;48.148;17.128;2023-10-19T12:38:49;98403.06;;;15.76
24740;BMP280;45234;48.148;17.128;2023-10-19T12:41:16;98405.44;;;15.67
24740;BMP280;45234;48.148;17.128;2023-10-19T12:43:44;98405.94;;;15.74
24740;BMP280;45234;48.148;17.128;2023-10-19T12:46:17;98397.31;;;15.79
24740;BMP280;45234;48.148;17.128;2023-10-19T12:48:46;98402.28;;;15.75
24740;BMP280;45234;48.148;17.128;2023-10-19T12:51:13;98394.25;;;15.62
24740;BMP280;45234;48.148;17.128;2023-10-19T12:53:41;98386.09;;;15.68
24740;BMP280;45234;48.148;17.128;2023-10-19T12:56:08;98380.41;;;15.56
24740;BMP280;45234;48.148;17.128;2023-10-19T12:58:38;98385.63;;;15.56
24740;BMP280;45234;48.148;17.128;2023-10-19T13:01:05;98373.56;;;15.70
24740;BMP280;45234;48.148;17.128;2023-10-19T13:03:32;98373.03;;;15.68
24740;BMP280;45234;48.148;17.128;2023-10-19T13:06:00;98367.75;;;15.88
24740;BMP280;45234;48.148;17.128;2023-10-19T13:08:30;98367.78;;;15.83
24740;BMP280;45234;48.148;17.128;2023-10-19T13:10:57;98375.56;;;15.94
24740;BMP280;45234;48.148;17.128;2023-10-19T13:13:38;98367.72;;;15.94
24740;BMP280;45234;48.148;17.128;2023-10-19T13:16:06;98360.16;;;15.87
24740;BMP280;45234;48.148;17.128;2023-10-19T13:18:36;98348.41;;;15.95
24740;BMP280;45234;48.148;17.128;2023-10-19T13:21:03;98357.00;;;15.90
24740;BMP280;45234;48.148;17.128;2023-10-19T13:23:32;98352.53;;;15.96
24740;BMP280;45234;48.148;17.128;2023-10-19T13:26:00;98352.34;;;15.87
24740;BMP280;45234;48.148;17.128;2023-10-19T13:28:45;98351.34;;;15.83
24740;BMP280;45234;48.148;17.128;2023-10-19T13:31:12;98351.03;;;15.90
24740;BMP280;45234;48.148;17.128;2023-10-19T13:33:43;98346.06;;;15.93
24740;BMP280;45234;48.148;17.128;2023-10-19T13:36:13;98346.88;;;15.83
24740;BMP280;45234;48.148;17.128;2023-10-19T13:38:41;98329.03;;;15.96
24740;BMP280;45234;48.148;17.128;2023-10-19T13:41:08;98319.66;;;15.90
24740;BMP280;45234;48.148;17.128;2023-10-19T13:43:40;98325.38;;;15.92
24740;BMP280;45234;48.148;17.128;2023-10-19T13:46:27;98327.59;;;15.74
24740;BMP280;45234;48.148;17.128;2023-10-19T13:48:56;98346.38;;;15.76
24740;BMP280;45234;48.148;17.128;2023-10-19T13:51:23;98332.28;;;15.77
24740;BMP280;45234;48.148;17.128;2023-10-19T13:53:50;98329.34;;;15.89
24740;BMP280;45234;48.148;17.128;2023-10-19T13:56:17;98319.38;;;15.91
24740;BMP280;45234;48.148;17.128;2023-10-19T13:58:44;98315.47;;;15.94
24740;BMP280;45234;48.148;17.128;2023-10-19T14:01:14;98319.41;;;15.86
24740;BMP280;45234;48.148;17.128;2023-10-19T14:03:44;98315.56;;;15.73
24740;BMP280;45234;48.148;17.128;2023-10-19T14:06:13;98318.94;;;15.84
24740;BMP280;45234;48.148;17.128;2023-10-19T14:08:41;98312.31;;;15.97
24740;BMP280;45234;48.148;17.128;2023-10-19T14:11:09;98320.84;;;16.07
24740;BMP280;45234;48.148;17.128;2023-10-19T14:13:36;98310.03;;;16.24
24740;BMP280;45234;48.148;17.128;2023-10-19T14:16:07;98314.84;;;16.07
24740;BMP280;45234;48.148;17.128;2023-10-19T14:18:36;98308.56;;;16.08
24740;BMP280;45234;48.148;17.128;2023-10-19T14:21:17;98288.34;;;15.79
24740;BMP280;45234;48.148;17.128;2023-10-19T14:23:46;98296.66;;;15.92
24740;BMP280;45234;48.148;17.128;2023-10-19T14:26:16;98283.13;;;15.79
24740;BMP280;45234;48.148;17.128;2023-10-19T14:28:44;98278.81;;;15.60
24740;BMP280;45234;48.148;17.128;2023-10-19T14:31:11;98277.06;;;15.45